Agua Caliente, California
Current Conditions -  °F | °C
As of 12:15 PM on Wednesday 26 Nov 2014 (Local Time) from KO69 Reporting Station
Clear Clear  
Wind Chill: 18°   Ceiling: Unl
Heat Index: 18°   Visibility: 10mi
Dew Point:   Wind: 9mph
Humidity: 56%   Direction: 170°S
Pressure: 30.27"   Gusts: NA
Location:  38.257°N, 122.459°W
Report Text: KO69 262015Z AUTO 17008KT 10SM CLR 18/09 A3027 RMK AO1
Loading
Personal Weather Stations






























Interactive Weather Map New forecast layout! Learn more

10-Day Weather Forecast

Advertisements
Track Severe Weather on mobile